This is the latest recevied weather packets stored in our database for station/object OH2TI. If no packets are shown the sender has not sent any weather packets the latest 10 day(s).
| Time | Temp. | Humidity | Pressure | Rain* | Wind** | Luminosity | Snow |
|---|---|---|---|---|---|---|---|
| 1778071614 | 9.44° C | 45% | 1010.4 hPa | - | - | - | - |
| 1778070979 | 9.44° C | 47% | 1010.4 hPa | - | - | - | - |
| 1778070642 | 10° C | 47% | 1010.3 hPa | - | - | - | - |
| 1778069802 | 9.44° C | 49% | 1010.4 hPa | - | - | - | - |
| 1778069219 | 8.89° C | 54% | 1010.3 hPa | - | - | - | - |
| 1778068352 | 7.78° C | 59% | 1010.2 hPa | - | - | - | - |
| 1778067852 | 7.78° C | 59% | 1010.4 hPa | - | - | - | - |
| 1778067339 | 7.78° C | 59% | 1010.3 hPa | - | - | - | - |
| 1778066742 | 7.78° C | 60% | 1010.3 hPa | - | - | - | - |
| 1778066136 | 7.78° C | 59% | 1010.2 hPa | - | - | - | - |
| 1778065449 | 8.33° C | 57% | 1010.3 hPa | - | - | - | - |
| 1778064591 | 8.89° C | 53% | 1010.3 hPa | - | - | - | - |
| 1778063999 | 8.89° C | 55% | 1010.2 hPa | - | - | - | - |
| 1778063629 | 8.89° C | 55% | 1010.1 hPa | - | - | - | - |
| 1778063204 | 9.44° C | 52% | 1010.2 hPa | - | - | - | - |
| 1778062339 | 9.44° C | 47% | 1010.3 hPa | - | - | - | - |
| 1778061869 | 10° C | 31% | 1010.2 hPa | - | - | - | - |
| 1778061036 | 9.44° C | 34% | 1010 hPa | - | - | - | - |
| 1778060732 | 9.44° C | 34% | 1010 hPa | - | - | - | - |
| 1778060022 | 10° C | 33% | 1010 hPa | - | - | - | - |
| 1778059429 | 9.44° C | 35% | 1009.9 hPa | - | - | - | - |
| 1778058684 | 9.44° C | 35% | 1009.7 hPa | - | - | - | - |
| 1778057796 | 8.89° C | 35% | 1009.7 hPa | - | - | - | - |
| 1778056926 | 9.44° C | 35% | 1009.7 hPa | - | - | - | - |
| 1778056356 | 8.33° C | 37% | 1009.7 hPa | - | - | - | - |
* Rain since midnight (hover to see other rain measurements)
** Current wind speed in m/s (hover to see current wind gust speed)